Time;durP1;ratioP1;P1;durP2;ratioP2;P2;SDS_P1;SDS_P2;PMS_P1;PMS_P2;Temp;Humidity;BMP_temperature;BMP_pressure;BME280_temperature;BME280_humidity;BME280_pressure;Samples;Min_cycle;Max_cycle;Signal;HPM_P1;HPM_P2
2022/05/26 00:05:01;;;;;;;1.45;0.88;;;;;;;17.98;52.77;100688.97;18320054;32;20156;-65
2022/05/26 00:15:06;;;;;;;2.33;1.10;;;;;;;18.13;52.50;100712.38;18319344;32;20093;-65
2022/05/26 00:25:11;;;;;;;2.15;1.00;;;;;;;17.99;52.08;100732.97;18310210;32;20129;-65
2022/05/26 00:35:15;;;;;;;3.80;1.30;;;;;;;17.82;53.14;100742.22;18307649;32;20089;-65
2022/05/26 00:45:20;;;;;;;2.55;1.23;;;;;;;17.48;55.70;100754.53;18307325;32;20171;-65
2022/05/26 00:55:27;;;;;;;2.08;0.90;;;;;;;16.67;58.44;100759.94;18307172;32;20116;-65
2022/05/26 01:05:37;;;;;;;1.23;1.10;;;;;;;16.80;55.95;100773.72;18306973;32;20167;-65
2022/05/26 01:15:40;;;;;;;1.83;1.05;;;;;;;16.61;57.20;100785.50;18306764;32;20497;-64
2022/05/26 01:26:17;;;;;;;1.90;1.10;;;;;;;16.60;57.56;100782.94;18306186;32;20141;-65
2022/05/26 01:36:31;;;;;;;2.97;1.10;;;;;;;16.33;59.67;100783.44;18305776;32;20101;-65
2022/05/26 01:46:39;;;;;;;2.15;1.10;;;;;;;16.43;57.71;100799.06;18305613;32;20106;-65
2022/05/26 01:56:48;;;;;;;1.60;1.12;;;;;;;16.48;58.20;100797.22;18305222;32;20089;-65
2022/05/26 02:06:54;;;;;;;1.70;1.17;;;;;;;15.81;60.30;100815.12;18304906;32;20116;-65
2022/05/26 02:17:04;;;;;;;0.98;0.95;;;;;;;15.44;61.17;100835.88;18304897;32;20104;-65
2022/05/26 02:27:07;;;;;;;1.75;1.25;;;;;;;15.52;61.84;100847.16;18304452;32;20403;-65
2022/05/26 02:37:13;;;;;;;1.15;1.00;;;;;;;14.93;63.60;100866.41;18304116;32;20141;-65
2022/05/26 02:47:27;;;;;;;1.20;0.90;;;;;;;14.89;63.67;100875.22;18289889;32;20480;-64
2022/05/26 02:57:38;;;;;;;2.65;1.10;;;;;;;15.04;61.57;100864.50;18303319;32;20086;-64
2022/05/26 03:07:44;;;;;;;2.50;1.27;;;;;;;15.81;54.70;100872.13;18302462;32;20102;-65
2022/05/26 03:17:49;;;;;;;1.12;1.00;;;;;;;16.70;52.34;100873.22;18302084;32;20090;-65
2022/05/26 03:27:52;;;;;;;1.62;0.82;;;;;;;17.17;50.66;100879.28;18301345;32;20122;-65
2022/05/26 03:48:17;;;;;;;;;;;;;;;16.41;56.07;100901.87;18300499;32;20097;-65
2022/05/26 03:58:22;;;;;;;2.00;1.05;;;;;;;15.98;59.69;100894.72;18304704;32;20302;-65
2022/05/26 04:08:25;;;;;;;2.67;1.58;;;;;;;15.91;61.54;100902.72;18308212;32;20375;-65
2022/05/26 04:18:29;;;;;;;3.90;1.50;;;;;;;16.04;62.03;100918.34;18308321;32;20153;-65
2022/05/26 04:28:33;;;;;;;3.17;1.50;;;;;;;17.32;58.49;100922.91;18307923;32;20105;-65
2022/05/26 04:38:38;;;;;;;2.80;1.25;;;;;;;17.93;56.48;100926.81;18307744;32;20101;-65
2022/05/26 04:48:41;;;;;;;2.35;1.20;;;;;;;18.22;57.30;100941.09;18307266;32;20149;-65
2022/05/26 04:58:47;;;;;;;1.80;1.08;;;;;;;18.91;56.91;100953.38;18304230;32;72824;-66
2022/05/26 05:08:51;;;;;;;2.33;1.10;;;;;;;19.49;52.32;100952.59;18305944;32;20109;-65
2022/05/26 05:18:56;;;;;;;1.67;0.90;;;;;;;20.32;50.11;100958.81;18306922;32;20101;-65
2022/05/26 05:29:08;;;;;;;4.10;1.20;;;;;;;20.35;49.78;100982.53;18305841;32;20461;-65
2022/05/26 05:39:13;;;;;;;1.50;1.00;;;;;;;20.59;50.10;100987.06;18306809;32;20086;-65
2022/05/26 05:49:16;;;;;;;1.90;0.90;;;;;;;20.71;49.63;100983.97;18304156;32;20120;-65
2022/05/26 05:59:21;;;;;;;1.67;0.90;;;;;;;20.81;49.17;100992.47;18304876;32;20798;-65
2022/05/26 06:09:24;;;;;;;1.00;0.70;;;;;;;21.05;48.14;100992.53;18304683;32;20159;-65
2022/05/26 06:19:29;;;;;;;1.40;0.85;;;;;;;21.10;47.92;101003.84;18302792;32;20487;-65
2022/05/26 06:29:50;;;;;;;1.95;1.12;;;;;;;21.45;48.02;101009.63;18301701;32;20107;-65
2022/05/26 06:39:57;;;;;;;2.03;0.75;;;;;;;21.63;50.56;101020.47;18303841;32;20097;-65
2022/05/26 06:50:00;;;;;;;0.73;0.70;;;;;;;22.10;47.26;101030.16;18288239;32;20124;-65
2022/05/26 07:00:07;;;;;;;1.10;0.88;;;;;;;22.15;44.57;101046.81;18302232;32;20137;-65
2022/05/26 07:10:12;;;;;;;2.05;0.62;;;;;;;22.30;45.69;101032.00;18297772;32;20111;-66
2022/05/26 07:20:16;;;;;;;1.98;0.60;;;;;;;22.86;43.01;101031.47;18283792;32;20163;-65
2022/05/26 07:30:20;;;;;;;0.70;0.60;;;;;;;24.74;42.04;101021.75;18304348;32;20094;-66
2022/05/26 07:50:45;;;;;;;1.25;0.75;;;;;;;26.66;35.47;101041.50;18305805;32;20089;-66
2022/05/26 08:00:52;;;;;;;1.12;0.80;;;;;;;25.87;35.76;101044.25;18307468;32;20102;-65
2022/05/26 08:10:55;;;;;;;3.50;1.08;;;;;;;25.63;35.77;101061.56;18307595;32;20097;-69
2022/05/26 08:21:07;;;;;;;1.25;0.62;;;;;;;26.10;35.57;101064.34;18300846;32;20125;-65
2022/05/26 08:31:13;;;;;;;2.08;0.70;;;;;;;25.48;36.77;101054.37;18306665;32;20096;-65
2022/05/26 08:41:20;;;;;;;1.80;0.90;;;;;;;25.33;37.28;101046.25;18306017;32;20097;-65
2022/05/26 08:51:34;;;;;;;2.15;0.60;;;;;;;25.29;35.41;101046.50;18306111;32;20090;-65
2022/05/26 09:01:40;;;;;;;0.60;0.60;;;;;;;25.61;36.17;101058.13;18305912;32;20176;-65
2022/05/26 09:22:26;;;;;;;0.52;0.40;;;;;;;27.73;30.72;101047.47;18299658;32;20093;-66
2022/05/26 09:32:31;;;;;;;1.30;0.70;;;;;;;27.20;29.04;101067.72;18299686;32;20107;-66
2022/05/26 09:42:42;;;;;;;1.08;0.73;;;;;;;26.99;30.89;101059.19;18303280;32;20817;-66
2022/05/26 09:52:46;;;;;;;;;;;;;;;26.81;32.10;101059.34;18238925;32;20141;-66
2022/05/26 10:02:51;;;;;;;1.35;0.60;;;;;;;27.04;32.34;101054.41;18226342;32;19995;-66
2022/05/26 10:13:05;;;;;;;1.83;0.80;;;;;;;26.98;29.14;101055.66;18276677;32;20097;-66
2022/05/26 10:23:18;;;;;;;0.52;0.52;;;;;;;27.67;29.89;101051.44;18296283;32;20105;-66
2022/05/26 10:33:42;;;;;;;0.68;0.65;;;;;;;26.95;29.92;101057.66;18225744;32;20082;-66
2022/05/26 10:43:51;;;;;;;0.80;0.65;;;;;;;27.13;30.47;101039.59;18258186;32;20116;-69
2022/05/26 10:53:57;;;;;;;0.75;0.62;;;;;;;27.42;30.20;101048.47;18264832;32;20512;-66
2022/05/26 11:04:10;;;;;;;0.70;0.70;;;;;;;27.65;31.86;101035.47;18299698;32;20097;-67
2022/05/26 11:17:21;;;;;;;0.70;0.45;;;;;;;27.65;31.48;101042.62;18281406;32;20183;-65
2022/05/26 11:24:49;;;;;;;0.40;0.40;;;;;;;27.68;33.14;101037.94;18234797;32;20505;-66
2022/05/26 11:45:21;;;;;;;0.98;0.60;;;;;;;28.54;28.23;101018.91;18267164;32;20117;-66
2022/05/26 11:55:27;;;;;;;0.43;0.43;;;;;;;28.66;30.42;101014.50;18280850;32;20346;-66
2022/05/26 12:05:48;;;;;;;0.80;0.80;;;;;;;28.65;27.82;101002.94;18297978;32;20379;-66
2022/05/26 12:16:19;;;;;;;2.87;0.60;;;;;;;27.77;30.03;100995.38;18298002;32;20371;-66
2022/05/26 12:26:47;;;;;;;1.12;0.82;;;;;;;26.49;30.90;100987.16;18259444;32;20085;-67
2022/05/26 12:37:04;;;;;;;1.15;0.82;;;;;;;26.94;31.65;100983.59;18253085;32;20113;-66
2022/05/26 12:47:21;;;;;;;1.73;1.08;;;;;;;26.25;35.09;100970.75;18305328;32;20086;-66
2022/05/26 12:57:25;;;;;;;0.70;0.60;;;;;;;25.30;34.42;100986.78;18291701;32;20128;-63
2022/05/26 13:07:30;;;;;;;2.25;0.65;;;;;;;24.93;34.73;100993.16;18304608;32;20133;-63
2022/05/26 13:17:33;;;;;;;1.37;0.70;;;;;;;25.18;34.30;100990.97;18305220;32;20409;-63
2022/05/26 13:27:47;;;;;;;0.60;0.60;;;;;;;25.20;34.94;100976.59;18300465;32;20505;-63
2022/05/26 13:37:54;;;;;;;2.47;0.68;;;;;;;25.40;35.03;100974.62;18299528;32;20359;-63
2022/05/26 13:48:37;;;;;;;1.65;1.08;;;;;;;25.62;34.98;100974.31;18297893;32;20737;-63
2022/05/26 13:58:45;;;;;;;1.25;0.88;;;;;;;25.20;35.92;100965.03;18299392;32;20113;-64
2022/05/26 14:08:49;;;;;;;0.85;0.55;;;;;;;25.72;38.51;100958.59;18299277;32;20110;-63
2022/05/26 14:18:59;;;;;;;0.90;0.80;;;;;;;25.63;36.63;100951.97;18284532;32;20124;-64
2022/05/26 14:29:05;;;;;;;1.50;0.68;;;;;;;25.51;34.63;100944.63;18283343;32;20097;-64
2022/05/26 14:39:11;;;;;;;0.60;0.60;;;;;;;25.77;36.80;100931.59;18285773;32;20097;-64
2022/05/26 14:49:14;;;;;;;3.25;0.80;;;;;;;25.89;35.09;100920.19;18300468;32;20144;-64
2022/05/26 14:59:18;;;;;;;1.05;0.80;;;;;;;26.38;35.29;100899.50;18284805;32;20116;-64
2022/05/26 15:09:25;;;;;;;0.60;0.55;;;;;;;26.69;32.92;100881.53;18298979;32;20156;-63
2022/05/26 15:19:34;;;;;;;0.77;0.65;;;;;;;26.47;32.00;100863.28;18299511;32;20145;-64
2022/05/26 15:29:38;;;;;;;1.15;0.70;;;;;;;27.04;33.66;100858.00;18296741;32;20100;-64
2022/05/26 15:39:43;;;;;;;1.62;0.55;;;;;;;27.20;32.10;100842.62;18296894;32;20111;-64
2022/05/26 15:49:47;;;;;;;0.95;0.60;;;;;;;26.37;32.97;100849.63;18298947;32;20105;-63
2022/05/26 15:59:52;;;;;;;1.98;0.57;;;;;;;26.32;33.23;100841.00;18304950;32;20097;-64
2022/05/26 16:09:56;;;;;;;1.55;0.75;;;;;;;26.48;33.07;100840.06;18292684;32;20093;-64
2022/05/26 16:20:01;;;;;;;0.70;0.50;;;;;;;26.34;34.17;100841.75;18306614;32;20120;-64
2022/05/26 16:30:06;;;;;;;0.45;0.45;;;;;;;26.27;34.44;100841.28;18289726;32;20120;-64
2022/05/26 16:40:11;;;;;;;0.70;0.60;;;;;;;26.08;34.21;100836.16;18292403;32;20105;-64
2022/05/26 16:50:15;;;;;;;2.12;0.68;;;;;;;26.36;34.96;100837.16;18305713;32;20093;-64
2022/05/26 17:00:21;;;;;;;0.50;0.50;;;;;;;26.33;34.51;100845.41;18301014;32;20188;-64
2022/05/26 17:10:28;;;;;;;0.57;0.45;;;;;;;25.93;31.96;100843.31;18304724;32;20093;-64
2022/05/26 17:31:00;;;;;;;2.40;0.93;;;;;;;26.13;31.84;100842.09;18304228;32;20093;-64
2022/05/26 17:41:05;;;;;;;2.83;0.75;;;;;;;25.46;34.67;100842.47;18303123;32;20116;-64
2022/05/26 17:51:18;;;;;;;1.20;0.62;;;;;;;25.65;33.47;100838.75;18343841;32;20112;-64
2022/05/26 18:01:26;;;;;;;0.90;0.70;;;;;;;25.19;34.71;100849.31;18367595;32;20131;-64
2022/05/26 18:11:29;;;;;;;2.03;0.85;;;;;;;24.72;35.95;100858.16;18347382;32;20108;-66
2022/05/26 18:21:37;;;;;;;1.92;1.00;;;;;;;24.32;37.86;100858.47;18351246;32;20101;-66
2022/05/26 18:31:42;;;;;;;1.33;0.73;;;;;;;23.56;42.21;100857.84;18366522;32;20363;-67
2022/05/26 18:41:47;;;;;;;1.35;0.85;;;;;;;22.45;45.63;100864.72;18325795;32;20120;-66
2022/05/26 18:51:50;;;;;;;2.15;1.25;;;;;;;21.76;48.17;100872.94;18296687;32;20117;-66
2022/05/26 19:01:55;;;;;;;2.17;0.90;;;;;;;21.17;49.55;100895.66;18287403;32;20111;-66
2022/05/26 19:11:58;;;;;;;2.30;1.02;;;;;;;20.96;49.19;100902.63;18301048;32;20093;-66
2022/05/26 19:22:03;;;;;;;1.00;0.80;;;;;;;20.43;52.04;100907.19;18286714;32;20106;-66
2022/05/26 19:32:08;;;;;;;1.08;0.70;;;;;;;20.12;53.01;100917.06;18292842;32;20101;-66
2022/05/26 19:42:18;;;;;;;2.25;1.10;;;;;;;19.93;53.49;100927.41;18293669;32;20094;-66
2022/05/26 19:52:23;;;;;;;0.98;0.88;;;;;;;19.74;54.86;100928.00;18291505;32;20089;-66
2022/05/26 20:02:29;;;;;;;1.98;1.00;;;;;;;19.49;55.54;100923.47;18307304;32;20119;-66
2022/05/26 20:12:32;;;;;;;1.90;1.10;;;;;;;18.99;56.01;100946.09;18304958;32;20150;-66
2022/05/26 20:22:37;;;;;;;1.52;1.00;;;;;;;18.75;58.12;100942.34;18307600;32;20103;-66
2022/05/26 20:32:40;;;;;;;2.15;1.10;;;;;;;18.67;59.24;100947.84;18294354;32;20502;-66
2022/05/26 20:42:45;;;;;;;2.22;1.00;;;;;;;18.71;59.31;100946.88;18306647;32;20128;-66
2022/05/26 20:52:50;;;;;;;4.97;1.05;;;;;;;18.98;58.12;100948.75;18307083;32;20101;-66
2022/05/26 21:02:54;;;;;;;1.55;1.02;;;;;;;18.74;59.01;100951.19;18307927;32;20112;-66
2022/05/26 21:12:58;;;;;;;1.23;1.02;;;;;;;18.72;59.98;100955.66;18293525;32;20102;-66
2022/05/26 21:23:02;;;;;;;1.10;1.00;;;;;;;18.64;59.13;100945.28;18306311;32;20163;-66
2022/05/26 21:33:06;;;;;;;3.78;1.00;;;;;;;18.60;59.88;100956.00;18307458;32;20112;-66
2022/05/26 21:43:10;;;;;;;1.30;1.00;;;;;;;18.26;60.13;100955.97;18306084;32;20097;-66
2022/05/26 21:53:15;;;;;;;2.22;1.23;;;;;;;18.43;60.42;100960.81;18305506;32;20394;-66
2022/05/26 22:03:20;;;;;;;0.90;0.90;;;;;;;18.12;61.82;100961.63;18305421;32;20098;-66
2022/05/26 22:13:23;;;;;;;1.92;1.10;;;;;;;18.07;63.26;100960.84;18290564;32;20097;-66
2022/05/26 22:23:28;;;;;;;2.87;1.12;;;;;;;18.35;62.72;100962.78;18304790;32;20394;-66
2022/05/26 22:33:33;;;;;;;2.28;1.40;;;;;;;18.50;62.68;100963.31;18304245;32;20112;-66
2022/05/26 22:43:40;;;;;;;1.52;1.10;;;;;;;18.35;63.49;100961.91;18303978;32;20133;-66
2022/05/26 22:53:43;;;;;;;1.58;1.00;;;;;;;18.68;62.72;100961.94;18303708;32;20085;-66
2022/05/26 23:03:48;;;;;;;2.85;1.50;;;;;;;18.65;61.98;100957.59;18302312;32;20109;-66
2022/05/26 23:13:51;;;;;;;3.30;1.15;;;;;;;19.02;61.06;100949.56;18302587;32;20113;-66
2022/05/26 23:23:56;;;;;;;1.23;1.02;;;;;;;18.53;62.80;100942.06;18302237;32;20386;-66
2022/05/26 23:33:59;;;;;;;1.77;1.20;;;;;;;18.78;62.77;100936.97;18301283;32;20188;-66
2022/05/26 23:44:04;;;;;;;2.17;1.00;;;;;;;18.75;63.08;100931.78;18301952;32;20086;-66
2022/05/26 23:54:07;;;;;;;1.95;1.00;;;;;;;19.12;61.73;100925.47;18299969;32;20094;-66
